sensor_id;sensor_type;location;lat;lon;timestamp;P1;durP1;ratioP1;P2;durP2;ratioP2
78889;SDS011;68279;48.964;14.502;2023-04-24T00:00:35;10.18;;;5.55;;
78889;SDS011;68279;48.964;14.502;2023-04-24T00:03:03;12.35;;;5.65;;
78889;SDS011;68279;48.964;14.502;2023-04-24T00:05:28;9.02;;;5.50;;
78889;SDS011;68279;48.964;14.502;2023-04-24T00:07:54;11.60;;;6.45;;
78889;SDS011;68279;48.964;14.502;2023-04-24T00:10:21;11.80;;;5.40;;
78889;SDS011;68279;48.964;14.502;2023-04-24T00:12:47;11.20;;;5.22;;
78889;SDS011;68279;48.964;14.502;2023-04-24T00:15:13;7.40;;;5.38;;
78889;SDS011;68279;48.964;14.502;2023-04-24T00:17:38;8.10;;;4.28;;
78889;SDS011;68279;48.964;14.502;2023-04-24T00:20:04;7.72;;;4.22;;
78889;SDS011;68279;48.964;14.502;2023-04-24T00:22:32;7.53;;;4.20;;
78889;SDS011;68279;48.964;14.502;2023-04-24T00:24:58;9.13;;;5.25;;
78889;SDS011;68279;48.964;14.502;2023-04-24T00:27:24;7.45;;;4.32;;
78889;SDS011;68279;48.964;14.502;2023-04-24T00:29:49;10.18;;;4.68;;
78889;SDS011;68279;48.964;14.502;2023-04-24T00:32:15;6.07;;;3.35;;
78889;SDS011;68279;48.964;14.502;2023-04-24T00:34:41;8.43;;;4.53;;
78889;SDS011;68279;48.964;14.502;2023-04-24T00:37:06;12.82;;;4.95;;
78889;SDS011;68279;48.964;14.502;2023-04-24T00:39:32;8.70;;;5.22;;
78889;SDS011;68279;48.964;14.502;2023-04-24T00:41:58;6.93;;;4.30;;
78889;SDS011;68279;48.964;14.502;2023-04-24T00:44:24;8.35;;;5.38;;
78889;SDS011;68279;48.964;14.502;2023-04-24T00:46:50;7.47;;;4.43;;
78889;SDS011;68279;48.964;14.502;2023-04-24T00:49:20;8.52;;;5.18;;
78889;SDS011;68279;48.964;14.502;2023-04-24T00:51:46;7.07;;;4.32;;
78889;SDS011;68279;48.964;14.502;2023-04-24T00:54:12;6.40;;;4.35;;
78889;SDS011;68279;48.964;14.502;2023-04-24T00:56:38;9.25;;;5.15;;
78889;SDS011;68279;48.964;14.502;2023-04-24T00:59:05;7.75;;;4.95;;
78889;SDS011;68279;48.964;14.502;2023-04-24T01:01:31;8.07;;;4.50;;
78889;SDS011;68279;48.964;14.502;2023-04-24T01:03:57;8.68;;;4.72;;
78889;SDS011;68279;48.964;14.502;2023-04-24T01:06:24;8.32;;;4.13;;
78889;SDS011;68279;48.964;14.502;2023-04-24T01:08:53;8.45;;;4.95;;
78889;SDS011;68279;48.964;14.502;2023-04-24T01:11:21;10.35;;;4.30;;
78889;SDS011;68279;48.964;14.502;2023-04-24T01:13:47;6.65;;;3.83;;
78889;SDS011;68279;48.964;14.502;2023-04-24T01:16:13;9.13;;;4.88;;
78889;SDS011;68279;48.964;14.502;2023-04-24T01:18:42;7.43;;;4.50;;
78889;SDS011;68279;48.964;14.502;2023-04-24T01:21:08;8.88;;;4.47;;
78889;SDS011;68279;48.964;14.502;2023-04-24T01:23:37;8.02;;;4.65;;
78889;SDS011;68279;48.964;14.502;2023-04-24T01:26:03;11.93;;;5.38;;
78889;SDS011;68279;48.964;14.502;2023-04-24T01:28:29;9.05;;;5.75;;
78889;SDS011;68279;48.964;14.502;2023-04-24T01:30:55;35.80;;;8.25;;
78889;SDS011;68279;48.964;14.502;2023-04-24T01:33:21;14.18;;;6.10;;
78889;SDS011;68279;48.964;14.502;2023-04-24T01:35:47;8.00;;;4.45;;
78889;SDS011;68279;48.964;14.502;2023-04-24T01:38:14;11.10;;;4.90;;
78889;SDS011;68279;48.964;14.502;2023-04-24T01:40:39;9.45;;;4.60;;
78889;SDS011;68279;48.964;14.502;2023-04-24T01:43:05;8.55;;;4.93;;
78889;SDS011;68279;48.964;14.502;2023-04-24T01:45:31;8.43;;;5.60;;
78889;SDS011;68279;48.964;14.502;2023-04-24T01:47:56;8.32;;;4.68;;
78889;SDS011;68279;48.964;14.502;2023-04-24T01:50:22;10.63;;;5.97;;
78889;SDS011;68279;48.964;14.502;2023-04-24T01:52:48;10.45;;;6.10;;
78889;SDS011;68279;48.964;14.502;2023-04-24T01:55:13;10.93;;;6.47;;
78889;SDS011;68279;48.964;14.502;2023-04-24T01:57:39;8.70;;;5.45;;
78889;SDS011;68279;48.964;14.502;2023-04-24T02:00:05;9.57;;;5.50;;
78889;SDS011;68279;48.964;14.502;2023-04-24T02:02:32;10.05;;;5.78;;
78889;SDS011;68279;48.964;14.502;2023-04-24T02:04:59;9.85;;;5.63;;
78889;SDS011;68279;48.964;14.502;2023-04-24T02:07:25;12.60;;;6.22;;
78889;SDS011;68279;48.964;14.502;2023-04-24T02:09:51;12.52;;;5.78;;
78889;SDS011;68279;48.964;14.502;2023-04-24T02:12:16;9.40;;;5.28;;
78889;SDS011;68279;48.964;14.502;2023-04-24T02:14:45;10.30;;;5.95;;
78889;SDS011;68279;48.964;14.502;2023-04-24T02:17:10;8.52;;;5.05;;
78889;SDS011;68279;48.964;14.502;2023-04-24T02:19:37;9.57;;;5.53;;
78889;SDS011;68279;48.964;14.502;2023-04-24T02:22:03;10.57;;;5.72;;
78889;SDS011;68279;48.964;14.502;2023-04-24T02:24:28;8.35;;;4.60;;
78889;SDS011;68279;48.964;14.502;2023-04-24T02:26:54;7.93;;;4.50;;
78889;SDS011;68279;48.964;14.502;2023-04-24T02:29:19;9.57;;;4.93;;
78889;SDS011;68279;48.964;14.502;2023-04-24T02:31:45;8.60;;;4.30;;
78889;SDS011;68279;48.964;14.502;2023-04-24T02:34:11;9.25;;;5.13;;
78889;SDS011;68279;48.964;14.502;2023-04-24T02:36:37;8.10;;;4.47;;
78889;SDS011;68279;48.964;14.502;2023-04-24T02:39:03;7.57;;;4.43;;
78889;SDS011;68279;48.964;14.502;2023-04-24T02:41:28;6.05;;;4.15;;
78889;SDS011;68279;48.964;14.502;2023-04-24T02:43:58;7.28;;;4.28;;
78889;SDS011;68279;48.964;14.502;2023-04-24T02:46:24;7.80;;;4.82;;
78889;SDS011;68279;48.964;14.502;2023-04-24T02:48:49;7.45;;;4.97;;
78889;SDS011;68279;48.964;14.502;2023-04-24T02:51:15;10.50;;;4.90;;
78889;SDS011;68279;48.964;14.502;2023-04-24T02:53:41;10.20;;;4.32;;
78889;SDS011;68279;48.964;14.502;2023-04-24T02:56:06;9.75;;;4.93;;
78889;SDS011;68279;48.964;14.502;2023-04-24T02:58:32;7.72;;;4.80;;
78889;SDS011;68279;48.964;14.502;2023-04-24T03:00:57;10.60;;;4.97;;
78889;SDS011;68279;48.964;14.502;2023-04-24T03:03:23;7.43;;;3.58;;
78889;SDS011;68279;48.964;14.502;2023-04-24T03:05:49;8.35;;;4.63;;
78889;SDS011;68279;48.964;14.502;2023-04-24T03:08:15;8.05;;;4.43;;
78889;SDS011;68279;48.964;14.502;2023-04-24T03:10:43;10.13;;;4.25;;
78889;SDS011;68279;48.964;14.502;2023-04-24T03:13:10;6.90;;;3.97;;
78889;SDS011;68279;48.964;14.502;2023-04-24T03:15:35;6.90;;;3.85;;
78889;SDS011;68279;48.964;14.502;2023-04-24T03:18:02;8.73;;;4.95;;
78889;SDS011;68279;48.964;14.502;2023-04-24T03:20:27;5.97;;;3.55;;
78889;SDS011;68279;48.964;14.502;2023-04-24T03:22:53;7.10;;;3.95;;
78889;SDS011;68279;48.964;14.502;2023-04-24T03:25:19;6.88;;;4.65;;
78889;SDS011;68279;48.964;14.502;2023-04-24T03:27:50;9.57;;;5.95;;
78889;SDS011;68279;48.964;14.502;2023-04-24T03:30:16;6.22;;;4.05;;
78889;SDS011;68279;48.964;14.502;2023-04-24T03:32:41;9.20;;;4.38;;
78889;SDS011;68279;48.964;14.502;2023-04-24T03:35:07;7.78;;;4.50;;
78889;SDS011;68279;48.964;14.502;2023-04-24T03:37:33;9.55;;;4.72;;
78889;SDS011;68279;48.964;14.502;2023-04-24T03:40:01;7.05;;;4.47;;
78889;SDS011;68279;48.964;14.502;2023-04-24T03:42:26;7.18;;;3.92;;
78889;SDS011;68279;48.964;14.502;2023-04-24T03:44:53;7.28;;;4.05;;
78889;SDS011;68279;48.964;14.502;2023-04-24T03:47:18;8.10;;;4.20;;
78889;SDS011;68279;48.964;14.502;2023-04-24T03:49:47;8.55;;;3.92;;
78889;SDS011;68279;48.964;14.502;2023-04-24T03:52:13;8.00;;;4.25;;
78889;SDS011;68279;48.964;14.502;2023-04-24T03:54:38;6.45;;;4.18;;
78889;SDS011;68279;48.964;14.502;2023-04-24T03:57:11;6.57;;;4.18;;
78889;SDS011;68279;48.964;14.502;2023-04-24T03:59:39;6.25;;;3.70;;
78889;SDS011;68279;48.964;14.502;2023-04-24T04:02:05;7.28;;;4.10;;
78889;SDS011;68279;48.964;14.502;2023-04-24T04:04:31;6.78;;;3.85;;
78889;SDS011;68279;48.964;14.502;2023-04-24T04:06:56;5.80;;;3.90;;
78889;SDS011;68279;48.964;14.502;2023-04-24T04:09:26;8.50;;;4.32;;
78889;SDS011;68279;48.964;14.502;2023-04-24T04:11:52;8.23;;;4.50;;
78889;SDS011;68279;48.964;14.502;2023-04-24T04:14:18;8.63;;;4.82;;
78889;SDS011;68279;48.964;14.502;2023-04-24T04:16:44;8.63;;;3.88;;
78889;SDS011;68279;48.964;14.502;2023-04-24T04:19:09;7.22;;;3.58;;
78889;SDS011;68279;48.964;14.502;2023-04-24T04:21:35;7.00;;;3.90;;
78889;SDS011;68279;48.964;14.502;2023-04-24T04:24:01;10.25;;;5.25;;
78889;SDS011;68279;48.964;14.502;2023-04-24T04:26:26;7.63;;;4.30;;
78889;SDS011;68279;48.964;14.502;2023-04-24T04:28:52;9.02;;;4.13;;
78889;SDS011;68279;48.964;14.502;2023-04-24T04:31:19;8.98;;;5.00;;
78889;SDS011;68279;48.964;14.502;2023-04-24T04:33:46;7.65;;;4.85;;
78889;SDS011;68279;48.964;14.502;2023-04-24T04:36:11;9.13;;;4.65;;
78889;SDS011;68279;48.964;14.502;2023-04-24T04:38:38;7.80;;;4.30;;
78889;SDS011;68279;48.964;14.502;2023-04-24T04:41:05;6.55;;;3.97;;
78889;SDS011;68279;48.964;14.502;2023-04-24T04:43:33;8.15;;;4.22;;
78889;SDS011;68279;48.964;14.502;2023-04-24T04:45:59;7.22;;;4.20;;
78889;SDS011;68279;48.964;14.502;2023-04-24T04:48:26;8.77;;;4.13;;
78889;SDS011;68279;48.964;14.502;2023-04-24T04:50:52;7.07;;;4.45;;
78889;SDS011;68279;48.964;14.502;2023-04-24T04:53:18;6.32;;;3.72;;
78889;SDS011;68279;48.964;14.502;2023-04-24T04:55:43;7.28;;;4.35;;
78889;SDS011;68279;48.964;14.502;2023-04-24T04:58:09;9.38;;;5.05;;
78889;SDS011;68279;48.964;14.502;2023-04-24T05:00:35;6.10;;;3.97;;
78889;SDS011;68279;48.964;14.502;2023-04-24T05:03:02;7.10;;;4.18;;
78889;SDS011;68279;48.964;14.502;2023-04-24T05:05:28;8.60;;;4.57;;
78889;SDS011;68279;48.964;14.502;2023-04-24T05:07:54;7.10;;;3.58;;
78889;SDS011;68279;48.964;14.502;2023-04-24T05:10:19;7.20;;;4.20;;
78889;SDS011;68279;48.964;14.502;2023-04-24T05:12:45;5.35;;;3.92;;
78889;SDS011;68279;48.964;14.502;2023-04-24T05:15:11;8.00;;;4.22;;
78889;SDS011;68279;48.964;14.502;2023-04-24T05:17:36;7.57;;;3.65;;
78889;SDS011;68279;48.964;14.502;2023-04-24T05:20:03;8.20;;;3.58;;
78889;SDS011;68279;48.964;14.502;2023-04-24T05:22:32;6.30;;;4.03;;
78889;SDS011;68279;48.964;14.502;2023-04-24T05:24:59;5.88;;;3.65;;
78889;SDS011;68279;48.964;14.502;2023-04-24T05:27:25;5.82;;;3.03;;
78889;SDS011;68279;48.964;14.502;2023-04-24T05:29:50;5.50;;;3.55;;
78889;SDS011;68279;48.964;14.502;2023-04-24T05:32:16;5.57;;;3.35;;
78889;SDS011;68279;48.964;14.502;2023-04-24T05:34:41;6.63;;;4.10;;
78889;SDS011;68279;48.964;14.502;2023-04-24T05:37:07;6.15;;;3.85;;
78889;SDS011;68279;48.964;14.502;2023-04-24T05:39:35;5.40;;;3.10;;
78889;SDS011;68279;48.964;14.502;2023-04-24T05:42:01;6.05;;;3.25;;
78889;SDS011;68279;48.964;14.502;2023-04-24T05:44:28;5.00;;;3.00;;
78889;SDS011;68279;48.964;14.502;2023-04-24T05:46:54;6.65;;;2.95;;
78889;SDS011;68279;48.964;14.502;2023-04-24T05:49:21;5.95;;;3.53;;
78889;SDS011;68279;48.964;14.502;2023-04-24T05:51:46;5.07;;;3.13;;
78889;SDS011;68279;48.964;14.502;2023-04-24T05:54:12;5.47;;;3.20;;
78889;SDS011;68279;48.964;14.502;2023-04-24T05:56:38;5.70;;;2.92;;
78889;SDS011;68279;48.964;14.502;2023-04-24T05:59:04;5.10;;;2.92;;
78889;SDS011;68279;48.964;14.502;2023-04-24T06:01:30;3.42;;;2.35;;
78889;SDS011;68279;48.964;14.502;2023-04-24T06:03:56;4.43;;;2.58;;
78889;SDS011;68279;48.964;14.502;2023-04-24T06:06:23;5.25;;;2.95;;
78889;SDS011;68279;48.964;14.502;2023-04-24T06:08:49;7.55;;;3.40;;
78889;SDS011;68279;48.964;14.502;2023-04-24T06:11:15;5.68;;;2.45;;
78889;SDS011;68279;48.964;14.502;2023-04-24T06:13:41;3.60;;;2.20;;
78889;SDS011;68279;48.964;14.502;2023-04-24T06:16:06;4.47;;;2.60;;
78889;SDS011;68279;48.964;14.502;2023-04-24T06:18:32;4.13;;;3.05;;
78889;SDS011;68279;48.964;14.502;2023-04-24T06:20:58;6.28;;;2.85;;
78889;SDS011;68279;48.964;14.502;2023-04-24T06:23:24;6.50;;;2.45;;
78889;SDS011;68279;48.964;14.502;2023-04-24T06:25:50;4.55;;;2.35;;
78889;SDS011;68279;48.964;14.502;2023-04-24T06:28:16;4.25;;;2.28;;
78889;SDS011;68279;48.964;14.502;2023-04-24T06:30:42;5.15;;;2.28;;
78889;SDS011;68279;48.964;14.502;2023-04-24T06:33:08;3.75;;;2.17;;
78889;SDS011;68279;48.964;14.502;2023-04-24T06:35:34;4.43;;;2.20;;
78889;SDS011;68279;48.964;14.502;2023-04-24T06:37:59;3.47;;;2.45;;
78889;SDS011;68279;48.964;14.502;2023-04-24T06:40:25;3.65;;;2.03;;
78889;SDS011;68279;48.964;14.502;2023-04-24T06:42:51;3.50;;;1.60;;
78889;SDS011;68279;48.964;14.502;2023-04-24T06:45:16;3.92;;;2.10;;
78889;SDS011;68279;48.964;14.502;2023-04-24T06:47:42;3.47;;;1.70;;
78889;SDS011;68279;48.964;14.502;2023-04-24T06:50:08;5.45;;;2.15;;
78889;SDS011;68279;48.964;14.502;2023-04-24T06:52:34;3.45;;;2.30;;
78889;SDS011;68279;48.964;14.502;2023-04-24T06:55:01;4.38;;;1.80;;
78889;SDS011;68279;48.964;14.502;2023-04-24T06:57:28;3.55;;;1.95;;
78889;SDS011;68279;48.964;14.502;2023-04-24T06:59:54;3.33;;;1.55;;
78889;SDS011;68279;48.964;14.502;2023-04-24T07:02:20;2.78;;;1.30;;
78889;SDS011;68279;48.964;14.502;2023-04-24T07:04:46;3.30;;;2.10;;
78889;SDS011;68279;48.964;14.502;2023-04-24T07:07:14;4.50;;;1.98;;
78889;SDS011;68279;48.964;14.502;2023-04-24T07:09:40;4.55;;;1.77;;
78889;SDS011;68279;48.964;14.502;2023-04-24T07:12:09;3.60;;;1.85;;
78889;SDS011;68279;48.964;14.502;2023-04-24T07:14:39;3.88;;;2.00;;
78889;SDS011;68279;48.964;14.502;2023-04-24T07:17:05;3.55;;;1.80;;
78889;SDS011;68279;48.964;14.502;2023-04-24T07:19:31;2.38;;;1.25;;
78889;SDS011;68279;48.964;14.502;2023-04-24T07:21:58;2.47;;;1.23;;
78889;SDS011;68279;48.964;14.502;2023-04-24T07:24:24;3.08;;;1.30;;
78889;SDS011;68279;48.964;14.502;2023-04-24T07:26:51;3.50;;;1.45;;
78889;SDS011;68279;48.964;14.502;2023-04-24T07:29:17;2.83;;;1.70;;
78889;SDS011;68279;48.964;14.502;2023-04-24T07:31:43;2.38;;;1.33;;
78889;SDS011;68279;48.964;14.502;2023-04-24T07:34:09;4.68;;;1.48;;
78889;SDS011;68279;48.964;14.502;2023-04-24T07:36:34;2.85;;;1.40;;
78889;SDS011;68279;48.964;14.502;2023-04-24T07:39:00;2.85;;;1.55;;
78889;SDS011;68279;48.964;14.502;2023-04-24T07:41:26;3.53;;;1.63;;
78889;SDS011;68279;48.964;14.502;2023-04-24T07:43:53;3.95;;;1.30;;
78889;SDS011;68279;48.964;14.502;2023-04-24T07:46:19;4.03;;;1.42;;
78889;SDS011;68279;48.964;14.502;2023-04-24T07:48:45;2.47;;;1.02;;
78889;SDS011;68279;48.964;14.502;2023-04-24T07:51:13;2.50;;;1.52;;
78889;SDS011;68279;48.964;14.502;2023-04-24T07:53:39;3.28;;;1.90;;
78889;SDS011;68279;48.964;14.502;2023-04-24T07:56:05;2.78;;;1.67;;
78889;SDS011;68279;48.964;14.502;2023-04-24T07:58:32;3.17;;;1.58;;
78889;SDS011;68279;48.964;14.502;2023-04-24T08:00:57;3.03;;;1.52;;
78889;SDS011;68279;48.964;14.502;2023-04-24T08:03:23;2.90;;;1.35;;
78889;SDS011;68279;48.964;14.502;2023-04-24T08:05:49;2.60;;;1.05;;
78889;SDS011;68279;48.964;14.502;2023-04-24T08:08:16;2.75;;;1.38;;
78889;SDS011;68279;48.964;14.502;2023-04-24T08:10:44;3.17;;;1.48;;
78889;SDS011;68279;48.964;14.502;2023-04-24T08:13:10;2.80;;;1.42;;
78889;SDS011;68279;48.964;14.502;2023-04-24T08:15:36;2.67;;;1.25;;
78889;SDS011;68279;48.964;14.502;2023-04-24T08:18:02;3.97;;;1.20;;
78889;SDS011;68279;48.964;14.502;2023-04-24T08:20:28;3.28;;;1.42;;
78889;SDS011;68279;48.964;14.502;2023-04-24T08:22:53;1.50;;;0.80;;
78889;SDS011;68279;48.964;14.502;2023-04-24T08:25:19;1.77;;;1.00;;
78889;SDS011;68279;48.964;14.502;2023-04-24T08:27:45;2.15;;;0.77;;
78889;SDS011;68279;48.964;14.502;2023-04-24T08:30:11;0.98;;;0.50;;
78889;SDS011;68279;48.964;14.502;2023-04-24T08:32:36;1.38;;;0.60;;
78889;SDS011;68279;48.964;14.502;2023-04-24T08:35:02;2.10;;;0.80;;
78889;SDS011;68279;48.964;14.502;2023-04-24T08:37:28;2.30;;;0.93;;
78889;SDS011;68279;48.964;14.502;2023-04-24T08:39:54;2.45;;;1.25;;
78889;SDS011;68279;48.964;14.502;2023-04-24T08:42:20;2.70;;;1.13;;
78889;SDS011;68279;48.964;14.502;2023-04-24T08:44:46;4.28;;;2.03;;
78889;SDS011;68279;48.964;14.502;2023-04-24T08:47:14;2.75;;;1.23;;
78889;SDS011;68279;48.964;14.502;2023-04-24T08:49:40;2.38;;;0.80;;
78889;SDS011;68279;48.964;14.502;2023-04-24T08:52:06;1.67;;;0.93;;
78889;SDS011;68279;48.964;14.502;2023-04-24T08:54:32;0.98;;;0.52;;
78889;SDS011;68279;48.964;14.502;2023-04-24T08:57:00;1.35;;;0.68;;
78889;SDS011;68279;48.964;14.502;2023-04-24T08:59:27;1.20;;;0.60;;
78889;SDS011;68279;48.964;14.502;2023-04-24T09:01:53;1.70;;;0.90;;
78889;SDS011;68279;48.964;14.502;2023-04-24T09:04:20;2.00;;;1.20;;
78889;SDS011;68279;48.964;14.502;2023-04-24T09:06:48;2.25;;;0.90;;
78889;SDS011;68279;48.964;14.502;2023-04-24T09:09:14;2.08;;;0.82;;
78889;SDS011;68279;48.964;14.502;2023-04-24T09:11:42;2.20;;;1.13;;
78889;SDS011;68279;48.964;14.502;2023-04-24T09:14:08;1.75;;;0.57;;
78889;SDS011;68279;48.964;14.502;2023-04-24T09:16:35;1.95;;;0.82;;
78889;SDS011;68279;48.964;14.502;2023-04-24T09:19:01;0.95;;;0.50;;
78889;SDS011;68279;48.964;14.502;2023-04-24T09:21:31;1.20;;;0.60;;
78889;SDS011;68279;48.964;14.502;2023-04-24T09:24:00;1.42;;;0.50;;
78889;SDS011;68279;48.964;14.502;2023-04-24T09:26:36;2.15;;;0.70;;
78889;SDS011;68279;48.964;14.502;2023-04-24T09:29:03;0.82;;;0.50;;
78889;SDS011;68279;48.964;14.502;2023-04-24T09:31:29;1.63;;;0.60;;
78889;SDS011;68279;48.964;14.502;2023-04-24T09:33:57;1.30;;;0.50;;
78889;SDS011;68279;48.964;14.502;2023-04-24T09:36:27;1.45;;;0.65;;
78889;SDS011;68279;48.964;14.502;2023-04-24T09:38:57;1.77;;;0.40;;
78889;SDS011;68279;48.964;14.502;2023-04-24T09:41:23;1.25;;;0.77;;
78889;SDS011;68279;48.964;14.502;2023-04-24T09:43:49;2.20;;;0.80;;
78889;SDS011;68279;48.964;14.502;2023-04-24T09:46:15;1.55;;;0.70;;
78889;SDS011;68279;48.964;14.502;2023-04-24T09:48:43;1.08;;;0.70;;
78889;SDS011;68279;48.964;14.502;2023-04-24T09:51:09;0.95;;;0.50;;
78889;SDS011;68279;48.964;14.502;2023-04-24T09:53:38;1.20;;;0.77;;
78889;SDS011;68279;48.964;14.502;2023-04-24T09:56:08;1.10;;;0.40;;
78889;SDS011;68279;48.964;14.502;2023-04-24T09:58:35;1.17;;;0.63;;
78889;SDS011;68279;48.964;14.502;2023-04-24T10:01:02;1.48;;;0.70;;
78889;SDS011;68279;48.964;14.502;2023-04-24T10:03:30;0.73;;;0.52;;
78889;SDS011;68279;48.964;14.502;2023-04-24T10:06:00;1.40;;;0.60;;
78889;SDS011;68279;48.964;14.502;2023-04-24T10:08:32;1.15;;;0.50;;
78889;SDS011;68279;48.964;14.502;2023-04-24T10:11:00;1.40;;;0.60;;
78889;SDS011;68279;48.964;14.502;2023-04-24T10:13:28;1.25;;;0.63;;
78889;SDS011;68279;48.964;14.502;2023-04-24T10:15:55;1.38;;;0.80;;
78889;SDS011;68279;48.964;14.502;2023-04-24T10:18:21;1.42;;;0.80;;
78889;SDS011;68279;48.964;14.502;2023-04-24T10:20:51;0.90;;;0.50;;
78889;SDS011;68279;48.964;14.502;2023-04-24T10:23:19;0.90;;;0.65;;
78889;SDS011;68279;48.964;14.502;2023-04-24T10:25:45;1.85;;;0.70;;
78889;SDS011;68279;48.964;14.502;2023-04-24T10:28:11;1.38;;;0.60;;
78889;SDS011;68279;48.964;14.502;2023-04-24T10:30:37;1.40;;;0.60;;
78889;SDS011;68279;48.964;14.502;2023-04-24T10:33:05;1.27;;;0.70;;
78889;SDS011;68279;48.964;14.502;2023-04-24T10:35:34;1.70;;;0.73;;
78889;SDS011;68279;48.964;14.502;2023-04-24T10:38:05;1.65;;;0.80;;
78889;SDS011;68279;48.964;14.502;2023-04-24T10:40:34;1.40;;;0.93;;
78889;SDS011;68279;48.964;14.502;2023-04-24T10:43:04;1.15;;;0.77;;
78889;SDS011;68279;48.964;14.502;2023-04-24T10:45:31;1.52;;;0.80;;
78889;SDS011;68279;48.964;14.502;2023-04-24T10:47:58;2.17;;;0.82;;
78889;SDS011;68279;48.964;14.502;2023-04-24T10:50:29;2.33;;;0.95;;
78889;SDS011;68279;48.964;14.502;2023-04-24T10:53:07;1.52;;;0.75;;
78889;SDS011;68279;48.964;14.502;2023-04-24T10:55:58;2.17;;;0.90;;
78889;SDS011;68279;48.964;14.502;2023-04-24T10:58:24;1.98;;;0.60;;
78889;SDS011;68279;48.964;14.502;2023-04-24T11:01:00;1.90;;;0.90;;
78889;SDS011;68279;48.964;14.502;2023-04-24T11:03:27;1.45;;;0.57;;
78889;SDS011;68279;48.964;14.502;2023-04-24T11:06:04;1.33;;;0.63;;
78889;SDS011;68279;48.964;14.502;2023-04-24T11:11:19;1.42;;;0.73;;
78889;SDS011;68279;48.964;14.502;2023-04-24T11:19:07;1.40;;;0.70;;
78889;SDS011;68279;48.964;14.502;2023-04-24T11:21:41;0.95;;;0.45;;
78889;SDS011;68279;48.964;14.502;2023-04-24T11:27:00;1.90;;;0.57;;
78889;SDS011;68279;48.964;14.502;2023-04-24T11:34:40;1.73;;;0.60;;
78889;SDS011;68279;48.964;14.502;2023-04-24T11:37:06;2.25;;;0.70;;
78889;SDS011;68279;48.964;14.502;2023-04-24T11:39:36;1.38;;;0.63;;
78889;SDS011;68279;48.964;14.502;2023-04-24T11:42:02;2.00;;;0.70;;
78889;SDS011;68279;48.964;14.502;2023-04-24T11:44:29;2.08;;;1.02;;
78889;SDS011;68279;48.964;14.502;2023-04-24T11:46:55;1.10;;;0.60;;
78889;SDS011;68279;48.964;14.502;2023-04-24T11:49:21;2.67;;;0.73;;
78889;SDS011;68279;48.964;14.502;2023-04-24T11:51:47;1.58;;;0.73;;
78889;SDS011;68279;48.964;14.502;2023-04-24T11:54:13;1.42;;;0.52;;
78889;SDS011;68279;48.964;14.502;2023-04-24T11:56:38;1.80;;;0.82;;
78889;SDS011;68279;48.964;14.502;2023-04-24T11:59:04;1.45;;;0.65;;
78889;SDS011;68279;48.964;14.502;2023-04-24T12:01:29;1.70;;;0.65;;
78889;SDS011;68279;48.964;14.502;2023-04-24T12:04:07;1.50;;;0.75;;
78889;SDS011;68279;48.964;14.502;2023-04-24T12:06:33;2.05;;;0.77;;
78889;SDS011;68279;48.964;14.502;2023-04-24T12:08:59;1.23;;;0.70;;
78889;SDS011;68279;48.964;14.502;2023-04-24T12:11:25;1.23;;;0.50;;
78889;SDS011;68279;48.964;14.502;2023-04-24T12:13:50;2.17;;;0.85;;
78889;SDS011;68279;48.964;14.502;2023-04-24T12:16:16;1.90;;;0.73;;
78889;SDS011;68279;48.964;14.502;2023-04-24T12:18:42;1.25;;;0.57;;
78889;SDS011;68279;48.964;14.502;2023-04-24T12:21:19;2.00;;;0.90;;
78889;SDS011;68279;48.964;14.502;2023-04-24T12:23:46;3.97;;;0.68;;
78889;SDS011;68279;48.964;14.502;2023-04-24T12:26:15;2.17;;;0.80;;
78889;SDS011;68279;48.964;14.502;2023-04-24T12:28:43;2.50;;;1.17;;
78889;SDS011;68279;48.964;14.502;2023-04-24T12:31:11;2.20;;;1.02;;
78889;SDS011;68279;48.964;14.502;2023-04-24T12:33:36;2.80;;;1.00;;
78889;SDS011;68279;48.964;14.502;2023-04-24T12:36:02;2.00;;;0.98;;
78889;SDS011;68279;48.964;14.502;2023-04-24T12:38:28;2.72;;;1.20;;
78889;SDS011;68279;48.964;14.502;2023-04-24T12:41:05;2.22;;;0.90;;
78889;SDS011;68279;48.964;14.502;2023-04-24T12:43:33;1.27;;;0.60;;
78889;SDS011;68279;48.964;14.502;2023-04-24T12:45:58;2.90;;;1.00;;
78889;SDS011;68279;48.964;14.502;2023-04-24T12:48:25;1.70;;;0.70;;
78889;SDS011;68279;48.964;14.502;2023-04-24T12:50:51;2.10;;;1.02;;
78889;SDS011;68279;48.964;14.502;2023-04-24T12:53:17;1.30;;;0.70;;
78889;SDS011;68279;48.964;14.502;2023-04-24T12:55:42;2.13;;;0.75;;
78889;SDS011;68279;48.964;14.502;2023-04-24T12:58:09;2.03;;;0.82;;
78889;SDS011;68279;48.964;14.502;2023-04-24T13:00:35;2.65;;;0.85;;
78889;SDS011;68279;48.964;14.502;2023-04-24T13:03:01;1.30;;;0.90;;
78889;SDS011;68279;48.964;14.502;2023-04-24T13:05:27;1.55;;;0.70;;
78889;SDS011;68279;48.964;14.502;2023-04-24T13:07:53;1.58;;;1.00;;
78889;SDS011;68279;48.964;14.502;2023-04-24T13:10:19;2.22;;;0.95;;
78889;SDS011;68279;48.964;14.502;2023-04-24T13:12:44;2.63;;;0.73;;
78889;SDS011;68279;48.964;14.502;2023-04-24T13:15:11;2.72;;;1.10;;
78889;SDS011;68279;48.964;14.502;2023-04-24T13:17:37;2.70;;;1.00;;
78889;SDS011;68279;48.964;14.502;2023-04-24T13:20:03;1.80;;;1.10;;
78889;SDS011;68279;48.964;14.502;2023-04-24T13:22:28;2.60;;;1.00;;
78889;SDS011;68279;48.964;14.502;2023-04-24T13:24:54;2.92;;;1.10;;
78889;SDS011;68279;48.964;14.502;2023-04-24T13:27:21;2.15;;;0.85;;
78889;SDS011;68279;48.964;14.502;2023-04-24T13:29:51;1.77;;;0.80;;
78889;SDS011;68279;48.964;14.502;2023-04-24T13:32:17;1.98;;;0.80;;
78889;SDS011;68279;48.964;14.502;2023-04-24T13:34:42;2.50;;;0.90;;
78889;SDS011;68279;48.964;14.502;2023-04-24T13:37:08;1.48;;;0.75;;
78889;SDS011;68279;48.964;14.502;2023-04-24T13:39:34;2.35;;;0.90;;
78889;SDS011;68279;48.964;14.502;2023-04-24T13:42:00;1.55;;;0.70;;
78889;SDS011;68279;48.964;14.502;2023-04-24T13:44:25;3.25;;;1.15;;
78889;SDS011;68279;48.964;14.502;2023-04-24T13:46:52;2.13;;;0.90;;
78889;SDS011;68279;48.964;14.502;2023-04-24T13:49:19;1.85;;;0.85;;
78889;SDS011;68279;48.964;14.502;2023-04-24T13:51:46;1.92;;;0.95;;
78889;SDS011;68279;48.964;14.502;2023-04-24T13:54:12;2.10;;;1.02;;
78889;SDS011;68279;48.964;14.502;2023-04-24T13:56:39;1.95;;;0.93;;
78889;SDS011;68279;48.964;14.502;2023-04-24T13:59:05;1.05;;;0.63;;
78889;SDS011;68279;48.964;14.502;2023-04-24T14:01:31;1.80;;;0.82;;
78889;SDS011;68279;48.964;14.502;2023-04-24T14:03:59;1.30;;;0.55;;
78889;SDS011;68279;48.964;14.502;2023-04-24T14:06:37;1.40;;;0.90;;
78889;SDS011;68279;48.964;14.502;2023-04-24T14:09:02;1.65;;;0.77;;
78889;SDS011;68279;48.964;14.502;2023-04-24T14:11:28;1.35;;;0.70;;
78889;SDS011;68279;48.964;14.502;2023-04-24T14:13:54;1.90;;;0.90;;
78889;SDS011;68279;48.964;14.502;2023-04-24T14:16:21;2.05;;;0.90;;
78889;SDS011;68279;48.964;14.502;2023-04-24T14:18:47;3.03;;;1.00;;
78889;SDS011;68279;48.964;14.502;2023-04-24T14:21:13;2.95;;;1.13;;
78889;SDS011;68279;48.964;14.502;2023-04-24T14:23:38;2.17;;;0.80;;
78889;SDS011;68279;48.964;14.502;2023-04-24T14:26:04;1.38;;;0.73;;
78889;SDS011;68279;48.964;14.502;2023-04-24T14:28:30;2.83;;;0.73;;
78889;SDS011;68279;48.964;14.502;2023-04-24T14:30:55;2.35;;;0.90;;
78889;SDS011;68279;48.964;14.502;2023-04-24T14:33:21;1.77;;;0.88;;
78889;SDS011;68279;48.964;14.502;2023-04-24T14:35:46;1.75;;;0.95;;
78889;SDS011;68279;48.964;14.502;2023-04-24T14:38:14;2.15;;;0.98;;
78889;SDS011;68279;48.964;14.502;2023-04-24T14:40:40;1.65;;;0.90;;
78889;SDS011;68279;48.964;14.502;2023-04-24T14:43:06;1.23;;;0.90;;
78889;SDS011;68279;48.964;14.502;2023-04-24T14:45:32;2.45;;;0.95;;